Terminal Aerodrome Forecast
Issued by NWS

Home | Current Version | Previous Version | Text Only | Print | Product List | Glossary On
Versions: 1 2 3 4 5 6 7 8 9 10 11 12 13 14 15 16 17 18 19 20 21 22 23 24 25 26 27 28 29 30 31 32 33 34 35 36
899
FTUS41 KALY 241358 AAB
TAFPSF
TAF AMD
KPSF 241358Z 2414/2512 06006KT 4SM -RA BR FEW015 OVC060
      TEMPO 2414/2416 2SM RA OVC015
     FM241600 09011G26KT 6SM -SHRA OVC015
     FM241900 07011G27KT 6SM -SHRA BKN025
     FM242100 07009KT P6SM VCSH BKN025
     FM250200 08005KT 6SM BR BKN020
     FM250700 08004KT 4SM BR BKN007=

USA.gov is the U.S. government's official web portal to all federal, state and local government web resources and services.